Latest Weather Observations for Tasman Island

IDT60901

Issued at 10:31 am EST Monday 21 August 2017 (issued every 10 minutes, with the page automatically refreshed every 10 minutes)

About weather observations | Map of Hobart area stations | Latest observations for Hobart area | Other Formats
Station Details ID: 094155 Name: TASMAN ISLAND Lat: -43.24 Lon: 148.00 Height: 240.0 m
Data from the previous 72 hours. | See also: Recent months at Tasman Island
Date/Time
EST
Temp
°C
App
Temp
°C
Dew
Point
°C
Rel
Hum
%
Delta-T
°C
Wind Press
QNH
hPa
Press
MSL
hPa
Rain since
9am
mm
Dir  Spd
km/h
Gust
km/h
Spd
kts
Gust
kts
21/10:30am 9.6 6.8 2.2 60 3.2 SE 6 13 3 7 1014.6 1014.9 0.0
21/10:00am 9.4 6.5 2.7 63 2.9 WSW 7 11 4 6 1014.8 1015.1 0.0
21/09:30am 9.3 6.8 1.5 58 3.3 NW 4 9 2 5 1014.9 1015.2 0.0
21/09:00am 8.1 5.1 1.9 65 2.6 NW 7 9 4 5 1015.1 1015.4 0.0
21/08:30am 7.4 4.3 1.5 66 2.4 WNW 7 11 4 6 1015.2 1015.5 0.0
21/08:00am 7.0 3.6 1.7 69 2.2 NW 9 17 5 9 1015.3 1015.6 0.0
21/07:30am 7.5 5.1 2.0 68 2.3 S 4 13 2 7 1015.1 1015.4 0.0
21/07:00am 6.9 4.3 1.0 66 2.4 NNW 4 6 2 3 1014.8 1015.1 0.0
21/06:30am 7.4 4.4 0.8 63 2.7 NNE 6 9 3 5 1014.8 1015.1 0.0
21/06:00am 7.0 3.2 1.7 69 2.2 NNW 11 17 6 9 1014.8 1015.1 0.0
21/05:30am 6.7 3.9 2.0 72 1.9 NW 6 11 3 6 1014.9 1015.2 0.0
21/05:00am 6.8 3.4 1.9 71 2.0 NW 9 15 5 8 1014.9 1015.2 0.0
21/04:30am 6.8 4.1 2.7 75 1.7 NW 6 7 3 4 1015.0 1015.3 0.0
21/04:00am 6.5 3.3 2.8 77 1.6 WNW 9 13 5 7 1015.2 1015.5 0.0
21/03:30am 6.2 3.3 2.8 79 1.4 WNW 7 11 4 6 1015.3 1015.6 0.0
21/03:00am 6.3 3.4 2.6 77 1.5 W 7 9 4 5 1015.4 1015.7 0.0
21/02:30am 6.2 3.0 2.8 79 1.4 W 9 11 5 6 1015.7 1016.0 0.0
21/02:00am 6.5 3.8 2.8 77 1.6 WNW 6 9 3 5 1015.9 1016.2 0.0
21/01:30am 6.8 4.2 3.4 79 1.5 W 6 9 3 5 1016.1 1016.4 0.0
21/01:00am 6.8 4.2 3.1 77 1.6 W 6 7 3 4 1016.2 1016.5 0.0
21/12:30am 6.9 4.3 3.2 77 1.6 WNW 6 9 3 5 1016.4 1016.7 0.0
21/12:00am 7.0 3.7 2.7 74 1.8 N 9 13 5 7 1016.6 1016.9 0.0
 
Date/Time
EST
Temp
°C
App
Temp
°C
Dew
Point
°C
Rel
Hum
%
Delta-T
°C
Wind Press
QNH
hPa
Press
MSL
hPa
Rain since
9am
mm
Dir  Spd
km/h
Gust
km/h
Spd
kts
Gust
kts
20/11:30pm 7.3 4.2 3.4 76 1.7 N 9 13 5 7 1016.9 1017.3 0.0
20/11:00pm 7.5 3.6 3.6 76 1.7 N 13 17 7 9 1017.2 1017.6 0.0
20/10:30pm 7.9 4.1 3.8 75 1.8 N 13 19 7 10 1017.5 1017.9 0.0
20/10:00pm 7.7 3.6 4.1 78 1.6 N 15 20 8 11 1017.7 1018.1 0.0
20/09:30pm 7.4 2.9 4.0 79 1.5 N 17 20 9 11 1017.6 1018.0 0.0
20/09:00pm 7.4 3.2 3.6 77 1.6 N 15 22 8 12 1017.5 1017.9 0.0
20/08:30pm 7.6 3.4 4.0 78 1.6 NNE 15 19 8 10 1017.5 1017.9 0.0
20/08:00pm 7.7 3.2 4.1 78 1.6 N 17 20 9 11 1017.5 1017.9 0.0
20/07:30pm 7.9 3.0 4.1 77 1.7 N 19 24 10 13 1017.5 1017.9 0.0
20/07:00pm 8.1 3.9 3.9 75 1.8 N 15 20 8 11 1017.7 1018.1 0.0
20/06:30pm 8.2 4.7 3.5 72 2.0 NNE 11 17 6 9 1017.7 1018.1 0.0
20/06:00pm 8.0 4.8 3.3 72 2.0 NNE 9 13 5 7 1017.6 1018.0 0.0
20/05:30pm 7.8 5.0 2.9 71 2.1 NE 7 9 4 5 1017.6 1018.0 0.0
20/05:00pm - - - - - - - - - - - - -
20/04:30pm 9.0 6.4 3.2 67 2.5 NNE 6 9 3 5 1017.7 1018.1 0.0
20/04:00pm 10.3 7.6 2.4 58 3.4 WNW 6 9 3 5 1017.7 1018.1 0.0
20/03:30pm 10.2 7.3 2.6 59 3.3 WNW 7 11 4 6 1017.8 1018.2 0.0
20/03:00pm 10.2 7.3 2.8 60 3.2 NW 7 11 4 6 1017.9 1018.3 0.0
20/02:30pm 10.3 7.1 3.1 61 3.2 WNW 9 15 5 8 1018.1 1018.5 0.0
20/02:00pm 10.6 7.9 3.6 62 3.1 WNW 7 20 4 11 1018.4 1018.8 0.0
20/01:30pm 10.8 8.1 2.9 58 3.5 WNW 6 15 3 8 1018.6 1019.0 0.0
20/01:00pm 10.2 7.0 3.3 62 3.0 WSW 9 19 5 10 1019.1 1019.4 0.0
20/12:30pm 9.4 5.0 2.7 63 2.9 WNW 15 28 8 15 1019.4 1019.7 0.0
20/12:00pm 9.4 4.7 2.9 64 2.8 NW 17 28 9 15 1019.7 1020.0 0.0
20/11:30am 9.1 4.7 2.7 64 2.8 WNW 15 30 8 16 1020.0 1020.3 0.0
20/11:00am 8.4 3.2 2.6 67 2.5 WNW 19 33 10 18 1020.3 1020.7 0.0
20/10:30am 8.1 3.0 2.8 69 2.3 WNW 19 32 10 17 1020.4 1020.8 0.0
20/10:00am 8.0 3.9 2.5 68 2.3 NW 13 30 7 16 1020.5 1020.9 0.0
20/09:30am 7.4 3.7 2.1 69 2.2 NW 11 26 6 14 1020.4 1020.8 0.0
20/09:00am 7.4 4.0 1.9 68 2.3 WNW 9 22 5 12 1020.6 1021.0 2.2
20/08:30am 6.8 3.4 1.7 70 2.1 WNW 9 28 5 15 1021.0 1021.4 2.2
20/08:00am 6.5 3.4 1.4 70 2.1 WNW 7 28 4 15 1020.9 1021.3 2.2
20/07:30am 6.1 2.7 1.6 73 1.8 WNW 9 24 5 13 1020.7 1021.1 2.2
20/07:00am 5.6 2.1 1.3 74 1.7 WNW 9 26 5 14 1020.5 1020.9 2.2
20/06:30am 5.3 1.4 1.4 76 1.6 WNW 11 26 6 14 1020.5 1020.9 2.2
20/06:00am 5.3 2.2 1.2 75 1.6 WNW 7 24 4 13 1020.5 1020.9 2.2
20/05:30am 5.2 2.1 1.1 75 1.6 WNW 7 30 4 16 1020.5 1020.9 2.2
20/05:00am 5.0 1.9 1.1 76 1.5 NW 7 26 4 14 1020.5 1020.9 2.2
20/04:30am 5.0 1.9 1.3 77 1.5 NW 7 24 4 13 1020.6 1021.0 2.2
20/04:00am 5.0 1.5 1.3 77 1.5 WNW 9 30 5 16 1020.6 1021.0 2.2
20/03:30am 5.0 1.5 1.5 78 1.4 WNW 9 26 5 14 1020.7 1021.1 2.2
20/03:00am 5.0 1.9 1.3 77 1.5 WNW 7 28 4 15 1020.7 1021.1 2.2
20/02:30am 5.2 2.1 1.3 76 1.6 W 7 20 4 11 1020.7 1021.1 2.2
20/02:00am 5.1 1.7 1.6 78 1.4 WNW 9 26 5 14 1021.0 1021.4 2.2
20/01:30am 5.0 2.1 1.3 77 1.5 WNW 6 19 3 10 1021.2 1021.6 2.2
20/01:00am 5.2 0.6 1.3 76 1.6 NW 15 32 8 17 1021.3 1021.7 2.2
20/12:30am 5.0 1.6 1.7 79 1.3 NW 9 24 5 13 1021.5 1021.9 2.2
20/12:00am 5.1 2.2 1.4 77 1.5 WSW 6 19 3 10 1021.5 1021.9 2.2
 
Date/Time
EST
Temp
°C
App
Temp
°C
Dew
Point
°C
Rel
Hum
%
Delta-T
°C
Wind Press
QNH
hPa
Press
MSL
hPa
Rain since
9am
mm
Dir  Spd
km/h
Gust
km/h
Spd
kts
Gust
kts
19/11:30pm 5.2 2.3 1.5 77 1.5 W 6 20 3 11 1021.4 1021.8 2.2
19/11:00pm 5.4 2.4 1.7 77 1.5 NNW 7 28 4 15 1021.5 1021.9 2.2
19/10:30pm 5.7 2.7 1.8 76 1.6 NNE 7 20 4 11 1021.5 1021.9 2.2
19/10:00pm 6.1 3.0 1.4 72 1.9 NNW 7 26 4 14 1021.4 1021.8 2.2
19/09:30pm 6.3 3.2 1.2 70 2.1 S 7 24 4 13 1021.5 1021.9 2.2
19/09:00pm 6.5 3.0 1.4 70 2.1 WNW 9 26 5 14 1021.6 1022.0 2.2
19/08:30pm 6.6 2.8 1.5 70 2.1 WSW 11 33 6 18 1021.6 1022.0 2.2
19/08:00pm 6.5 2.7 2.0 73 1.8 SSW 11 44 6 24 1021.7 1022.1 2.2
19/07:30pm 6.7 2.0 3.0 77 1.6 WSW 17 39 9 21 1021.6 1022.0 2.2
19/07:00pm 6.3 0.2 2.9 79 1.4 WSW 24 54 13 29 1021.8 1022.2 2.2
19/06:30pm 6.3 1.5 2.6 77 1.5 WSW 17 44 9 24 1021.8 1022.2 2.2
19/06:01pm 6.2 -0.5 3.9 85 1.0 SSW 28 57 15 31 1021.7 1022.1 2.2
19/06:00pm 6.2 -0.1 3.9 85 1.0 SSW 26 57 14 31 1021.7 1022.1 2.0
19/05:40pm 6.2 -0.6 3.0 80 1.3 SW 28 57 15 31 1021.5 1021.9 1.8
19/05:30pm 6.6 1.2 2.3 74 1.8 SW 20 54 11 29 1021.4 1021.8 1.8
19/05:00pm 6.7 1.3 2.6 75 1.7 SW 20 50 11 27 1021.3 1021.7 1.8
19/04:30pm 7.6 2.2 2.3 69 2.2 SW 20 43 11 23 1021.2 1021.6 1.8
19/04:00pm 7.2 0.1 1.5 67 2.3 SW 28 56 15 30 1021.0 1021.4 1.8
19/03:51pm 7.2 0.3 2.5 72 2.0 SW 28 46 15 25 1020.8 1021.2 1.8
19/03:30pm 7.4 2.0 2.5 71 2.1 SW 20 50 11 27 1020.8 1021.2 1.8
19/03:00pm 7.3 1.1 2.4 71 2.1 SW 24 48 13 26 1020.5 1020.9 1.8
19/02:30pm 7.5 1.9 3.2 74 1.8 WSW 22 48 12 26 1020.5 1020.9 1.8
19/02:00pm 7.3 1.6 3.0 74 1.8 SW 22 46 12 25 1020.3 1020.7 1.8
19/01:30pm 7.4 2.8 3.5 76 1.7 SW 17 46 9 25 1020.2 1020.6 1.8
19/01:00pm 6.0 1.8 3.7 85 1.0 ENE 15 33 8 18 1020.2 1020.6 1.8
19/12:30pm 6.3 -1.6 2.4 76 1.6 SW 33 63 18 34 1020.2 1020.6 1.8
19/12:22pm 5.5 0.1 2.2 79 1.4 WSW 20 63 11 34 1020.2 1020.6 1.8
19/12:00pm 5.1 0.1 3.4 89 0.7 SW 19 61 10 33 1020.5 1020.9 1.8
19/11:30am 4.8 -1.2 3.6 92 0.5 WSW 24 44 13 24 1020.4 1020.8 1.4
19/11:00am 5.3 1.3 3.0 85 1.0 W 13 39 7 21 1020.7 1021.1 0.4
19/10:30am 5.4 1.0 2.6 82 1.2 WSW 15 41 8 22 1020.6 1021.0 0.4
19/10:00am 5.1 -0.2 2.8 85 1.0 SW 20 54 11 29 1020.7 1021.1 0.4
19/09:30am 6.5 3.6 2.6 76 1.6 NNE 7 26 4 14 1020.5 1020.9 0.0
19/09:00am 5.6 2.6 2.1 78 1.4 NNE 7 22 4 12 1020.4 1020.8 7.8
19/08:30am 5.5 -2.2 0.1 68 2.1 SW 30 56 16 30 1020.1 1020.4 7.8
19/08:00am 3.4 -4.5 1.0 84 0.9 SSW 32 72 17 39 1020.2 1020.6 7.8
19/07:56am 4.0 -3.2 1.0 81 1.2 SSW 28 72 15 39 1020.0 1020.3 7.8
19/07:55am 4.4 -2.3 1.4 81 1.2 SSW 26 72 14 39 1019.9 1020.2 7.8
19/07:30am 4.0 -3.5 1.5 84 1.0 SSW 30 43 16 23 1020.0 1020.3 7.8
19/07:00am 3.3 -5.1 1.8 90 0.6 SW 35 50 19 27 1019.5 1019.8 7.8
19/06:38am 3.8 -3.7 1.5 85 0.9 SSW 30 59 16 32 1019.2 1019.5 6.6
19/06:30am 4.8 -1.7 0.4 73 1.7 SSW 24 46 13 25 1019.1 1019.4 6.2
19/06:14am 4.6 -2.7 0.2 73 1.7 SSW 28 59 15 32 1018.6 1019.0 6.2
19/06:00am 4.4 -1.1 1.8 83 1.0 SW 20 52 11 28 1018.4 1018.8 6.2
19/05:36am 5.1 -2.4 -1.1 64 2.3 SSW 28 50 15 27 1018.3 1018.7 6.2
19/05:30am 5.1 -2.4 -1.3 63 2.4 SSW 28 46 15 25 1018.2 1018.6 6.2
19/05:00am 4.4 -3.5 1.1 79 1.3 SSW 32 57 17 31 1017.9 1018.3 6.2
19/04:31am 5.3 -2.0 -0.1 68 2.1 SSW 28 48 15 26 1017.6 1018.0 6.2
19/04:30am 5.2 -1.8 -0.2 68 2.1 SSW 26 48 14 26 1017.5 1017.9 6.2
19/04:05am 5.1 -2.4 -1.1 64 2.3 SSW 28 52 15 28 1017.4 1017.8 6.2
19/04:00am 5.5 -1.6 -1.4 61 2.6 SSW 26 43 14 23 1017.3 1017.7 6.2
19/03:30am 5.1 -4.0 -3.2 55 3.0 SSW 35 54 19 29 1017.1 1017.5 6.2
19/03:00am 5.2 -3.7 -2.1 59 2.7 SSW 35 57 19 31 1016.6 1016.9 6.2
19/02:30am 4.7 -3.9 -0.1 71 1.8 SSW 35 59 19 32 1016.2 1016.5 6.2
19/02:00am 3.6 -4.5 0.7 81 1.1 SSW 33 65 18 35 1016.3 1016.6 6.0
19/01:47am 3.7 -3.7 1.9 88 0.7 SSW 30 54 16 29 1016.2 1016.5 6.0
19/01:30am 3.9 -2.0 1.4 84 1.0 SSW 22 35 12 19 1016.2 1016.5 5.8
19/01:01am 3.9 -4.1 0.6 79 1.3 SSW 32 52 17 28 1015.7 1016.0 5.8
19/01:00am 3.8 -4.3 1.0 82 1.1 SSW 33 52 18 28 1015.7 1016.0 5.8
19/12:37am 4.2 -3.0 0.5 77 1.4 SSW 28 57 15 31 1015.4 1015.7 5.6
19/12:30am 4.2 -1.5 2.6 89 0.7 SSW 22 41 12 22 1015.4 1015.7 5.6
19/12:08am 3.5 -3.6 1.5 87 0.8 SSW 28 46 15 25 1015.3 1015.6 5.6
19/12:00am 4.6 -1.3 1.6 81 1.2 S 22 43 12 23 1015.1 1015.4 5.4
 
Date/Time
EST
Temp
°C
App
Temp
°C
Dew
Point
°C
Rel
Hum
%
Delta-T
°C
Wind Press
QNH
hPa
Press
MSL
hPa
Rain since
9am
mm
Dir  Spd
km/h
Gust
km/h
Spd
kts
Gust
kts
18/11:30pm 3.4 -7.1 1.3 86 0.8 SSW 46 67 25 36 1014.9 1015.2 5.2
18/11:18pm 3.8 -4.9 1.8 87 0.8 SSW 37 65 20 35 1014.6 1014.9 5.2
18/11:07pm 4.9 -2.0 2.4 84 1.0 S 28 46 15 25 1014.5 1014.8 4.8
18/11:00pm 5.4 -2.4 1.7 77 1.5 SSW 32 46 17 25 1014.3 1014.7 4.8
18/10:30pm 4.6 -3.3 1.3 79 1.3 SSW 32 52 17 28 1014.1 1014.5 4.8
18/10:02pm 4.8 -4.0 1.3 78 1.4 SSW 37 56 20 30 1013.9 1014.3 4.8
18/10:00pm 4.8 -4.8 0.9 76 1.5 SSW 41 57 22 31 1013.8 1014.2 4.8
18/09:47pm 5.5 -2.3 1.4 75 1.6 SSW 32 72 17 39 1013.5 1013.9 4.8
18/09:30pm 5.1 -2.5 0.7 73 1.7 SSW 30 48 16 26 1013.4 1013.8 4.8
18/09:00pm 4.9 -3.3 2.9 87 0.8 SW 35 54 19 29 1012.8 1013.1 4.8
18/08:30pm 5.2 -5.0 -0.2 68 2.1 SSW 43 65 23 35 1012.3 1012.6 4.6
18/08:00pm 4.5 -6.2 -0.1 72 1.8 SSW 46 67 25 36 1011.9 1012.2 4.6
18/07:30pm 3.4 -6.2 1.4 87 0.8 SSW 41 70 22 38 1011.7 1012.0 4.6
18/07:00pm 5.4 -2.7 1.3 75 1.6 SSW 33 57 18 31 1010.8 1011.1 4.4
18/06:30pm 5.2 -4.5 0.2 70 1.9 SSW 41 61 22 33 1010.2 1010.5 4.4
18/06:00pm 5.2 -2.8 1.5 77 1.5 SSW 33 56 18 30 1009.4 1009.7 4.4
18/05:33pm 5.5 -4.6 1.4 75 1.6 SSW 44 72 24 39 1008.5 1008.8 4.4
18/05:30pm 5.5 -4.5 1.1 73 1.8 SSW 43 59 23 32 1008.6 1008.9 4.4
18/05:00pm 5.1 -4.3 0.1 70 1.9 SSW 39 59 21 32 1007.7 1008.0 4.4
18/04:30pm 4.8 -3.6 1.5 79 1.3 SSW 35 56 19 30 1007.2 1007.5 4.4
18/04:00pm 4.7 -3.7 1.4 79 1.3 SSW 35 56 19 30 1006.6 1006.9 4.4
18/03:31pm 3.6 -5.6 1.5 86 0.8 SSW 39 57 21 31 1006.2 1006.4 4.4
18/03:30pm 3.6 -5.9 1.5 86 0.8 SSW 41 57 22 31 1006.2 1006.4 4.4
18/03:07pm 5.9 -1.0 2.7 80 1.3 S 28 50 15 27 1005.4 1005.7 2.8
18/03:00pm 5.7 -0.9 1.8 76 1.6 S 26 46 14 25 1005.3 1005.6 2.8
18/02:33pm 6.0 -1.4 2.1 76 1.6 S 30 50 16 27 1004.7 1005.0 2.8
18/02:30pm 6.0 -1.7 2.5 78 1.5 SSW 32 50 17 27 1004.6 1004.9 2.8
18/02:00pm 6.2 -1.1 0.1 65 2.4 S 28 46 15 25 1003.9 1004.2 2.8
18/01:30pm 6.1 -1.9 0.2 66 2.3 SSW 32 54 17 29 1003.4 1003.7 2.8
18/01:00pm 6.2 -1.4 0.7 68 2.2 S 30 50 16 27 1003.0 1003.3 2.8
18/12:30pm 5.7 -2.3 0.7 70 2.0 SSW 32 57 17 31 1002.4 1002.6 2.8
18/12:07pm 5.3 -1.6 2.3 81 1.2 SSW 28 46 15 25 1002.3 1002.5 2.8
18/12:00pm 5.0 -2.3 2.4 83 1.1 SSW 30 48 16 26 1002.4 1002.6 2.8
18/11:57am 5.4 -1.4 2.9 84 1.0 SSW 28 48 15 26 1002.2 1002.4 2.8
18/11:30am 5.2 -2.0 2.9 85 1.0 SSW 30 44 16 24 1002.1 1002.3 2.8
18/11:16am 5.3 -2.8 3.3 87 0.8 SSW 35 57 19 31 1001.7 1001.9 2.8
18/11:00am 5.5 -2.6 3.3 86 0.9 SSW 35 52 19 28 1001.5 1001.7 2.8
18/10:56am 5.8 -1.8 3.0 82 1.2 SSW 32 52 17 28 1001.4 1001.6 2.6

Latest Capital City Observations: Canberra | Sydney | Melbourne | Brisbane | Adelaide | Perth | Hobart | Darwin

Other Formats:

Comma delimited format used in spreadsheet applications
http://www.bom.gov.au/fwo/IDT60901/IDT60901.95986.axf

JavaScript Object Notation format (JSON) in row-major order
http://www.bom.gov.au/fwo/IDT60901/IDT60901.95986.json